Time;durP1;ratioP1;P1;durP2;ratioP2;P2;SDS_P1;SDS_P2;PMS_P1;PMS_P2;Temp;Humidity;BMP_temperature;BMP_pressure;BME280_temperature;BME280_humidity;BME280_pressure;Samples;Min_cycle;Max_cycle;Signal;HPM_P1;HPM_P2
2021/01/21 00:01:45;;;;;;;5.15;0.50;;;6.90;99.90;;;;;;5021303;28;20677;-80
2021/01/21 00:04:12;;;;;;;6.70;0.60;;;7.00;99.90;;;;;;5023878;28;20053;-80
2021/01/21 00:06:42;;;;;;;4.00;0.57;;;6.90;99.90;;;;;;5029638;28;20054;-80
2021/01/21 00:09:09;;;;;;;4.38;0.75;;;6.90;99.90;;;;;;5026340;28;20053;-80
2021/01/21 00:11:35;;;;;;;6.30;0.60;;;6.90;99.90;;;;;;5029911;28;20087;-80
2021/01/21 00:14:02;;;;;;;4.00;0.60;;;7.00;99.90;;;;;;5012660;28;20047;-80
2021/01/21 00:16:29;;;;;;;3.50;0.50;;;7.00;99.90;;;;;;5028842;28;20045;-80
2021/01/21 00:18:55;;;;;;;6.20;0.95;;;7.00;99.90;;;;;;5021790;28;20045;-80
2021/01/21 00:21:22;;;;;;;5.55;0.98;;;6.90;99.90;;;;;;5010998;28;20057;-80
2021/01/21 00:23:48;;;;;;;2.95;0.60;;;7.00;99.90;;;;;;5028702;28;20071;-80
2021/01/21 00:26:15;;;;;;;2.72;0.40;;;7.00;99.90;;;;;;5019468;28;20075;-80
2021/01/21 00:28:42;;;;;;;6.13;0.50;;;7.00;99.90;;;;;;5014110;28;20049;-80
2021/01/21 00:31:12;;;;;;;4.00;0.60;;;7.00;99.90;;;;;;5032222;28;20057;-80
2021/01/21 00:33:38;;;;;;;2.95;0.60;;;7.00;99.90;;;;;;5029822;28;20042;-80
2021/01/21 00:36:06;;;;;;;3.55;0.50;;;7.00;99.90;;;;;;5033570;28;20391;-80
2021/01/21 00:38:32;;;;;;;1.17;0.50;;;7.00;99.90;;;;;;5015528;28;20506;-81
2021/01/21 00:41:01;;;;;;;5.30;0.60;;;7.00;99.90;;;;;;5014281;28;20053;-80
2021/01/21 00:43:28;;;;;;;6.00;1.23;;;6.90;99.90;;;;;;5013405;28;20064;-80
2021/01/21 00:45:56;;;;;;;3.40;0.88;;;6.90;99.90;;;;;;5031634;28;20046;-80
2021/01/21 00:48:23;;;;;;;5.18;0.50;;;6.90;99.90;;;;;;5009797;28;20049;-80
2021/01/21 00:50:50;;;;;;;14.63;0.60;;;6.90;99.90;;;;;;5000367;28;20061;-80
2021/01/21 00:53:16;;;;;;;3.80;0.60;;;6.90;99.90;;;;;;5024746;28;20058;-80
2021/01/21 00:55:43;;;;;;;4.28;0.70;;;7.00;99.90;;;;;;5027579;28;20042;-80
2021/01/21 00:58:10;;;;;;;5.18;1.27;;;7.00;99.90;;;;;;5032483;28;20045;-80
2021/01/21 01:00:36;;;;;;;7.03;0.73;;;7.00;99.90;;;;;;5014998;28;20056;-80
2021/01/21 01:03:09;;;;;;;2.63;0.60;;;7.00;99.90;;;;;;5014566;28;20060;-80
2021/01/21 01:05:36;;;;;;;1.17;0.60;;;7.00;99.90;;;;;;5017099;28;20103;-80
2021/01/21 01:08:03;;;;;;;6.95;0.70;;;7.00;99.90;;;;;;5026503;28;20060;-80
2021/01/21 01:10:30;;;;;;;5.40;0.60;;;7.00;99.90;;;;;;5029462;28;20069;-80
2021/01/21 01:12:56;;;;;;;4.47;0.70;;;7.00;99.90;;;;;;5014146;28;20048;-80
2021/01/21 01:15:30;;;;;;;12.35;1.40;;;7.00;99.90;;;;;;5031536;28;20049;-80
2021/01/21 01:17:56;;;;;;;6.10;0.90;;;7.00;99.90;;;;;;5028383;28;20475;-80
2021/01/21 01:20:23;;;;;;;7.03;1.20;;;7.00;99.90;;;;;;5004292;28;20099;-80
2021/01/21 01:22:54;;;;;;;9.38;1.98;;;7.00;99.90;;;;;;5030137;28;20517;-80
2021/01/21 01:25:22;;;;;;;13.18;1.80;;;7.00;99.90;;;;;;5015050;28;20061;-80
2021/01/21 01:27:48;;;;;;;7.10;1.10;;;7.00;99.90;;;;;;5004376;28;20068;-80
2021/01/21 01:30:16;;;;;;;9.13;1.00;;;7.00;99.90;;;;;;5023829;28;20045;-80
2021/01/21 01:32:47;;;;;;;11.48;1.15;;;7.00;99.90;;;;;;5025225;28;20049;-81
2021/01/21 01:35:15;;;;;;;18.30;3.70;;;7.00;99.90;;;;;;5028398;28;20046;-80
2021/01/21 01:37:42;;;;;;;16.15;3.13;;;7.10;99.90;;;;;;5030299;28;20184;-80
2021/01/21 01:40:10;;;;;;;17.48;1.73;;;7.10;99.90;;;;;;5024121;28;20056;-80
2021/01/21 01:42:38;;;;;;;14.85;3.42;;;7.10;99.90;;;;;;5019656;28;20064;-80
2021/01/21 01:45:07;;;;;;;7.15;1.05;;;7.00;99.90;;;;;;5013575;28;20053;-80
2021/01/21 01:47:34;;;;;;;9.65;1.10;;;7.00;99.90;;;;;;5030823;28;20064;-80
2021/01/21 01:50:01;;;;;;;7.53;0.68;;;7.10;99.90;;;;;;5032931;28;20363;-80
2021/01/21 01:52:29;;;;;;;7.15;0.57;;;7.10;99.90;;;;;;5028148;28;20051;-80
2021/01/21 01:54:55;;;;;;;9.23;0.60;;;7.10;99.90;;;;;;5012588;28;20042;-81
2021/01/21 01:57:23;;;;;;;3.03;0.50;;;7.10;99.90;;;;;;5028488;28;20065;-81
2021/01/21 01:59:58;;;;;;;5.75;0.70;;;7.10;99.90;;;;;;5011112;28;20391;-81
2021/01/21 02:02:26;;;;;;;8.85;0.60;;;7.10;99.90;;;;;;5016931;28;20053;-80
2021/01/21 02:04:53;;;;;;;5.53;0.70;;;7.10;99.90;;;;;;5024200;28;20061;-80
2021/01/21 02:07:20;;;;;;;11.15;1.48;;;7.20;99.90;;;;;;5015011;28;20057;-80
2021/01/21 02:09:49;;;;;;;7.75;0.93;;;7.20;99.90;;;;;;5009961;28;20045;-80
2021/01/21 02:12:46;;;;;;;10.25;0.80;;;7.20;99.90;;;;;;5025622;28;20077;-80
2021/01/21 02:15:55;;;;;;;4.55;0.50;;;7.20;99.90;;;;;;5014611;28;20483;-80
2021/01/21 02:18:42;;;;;;;5.85;0.80;;;7.30;99.90;;;;;;5002730;28;20056;-81
2021/01/21 02:21:37;;;;;;;4.57;0.50;;;7.20;99.90;;;;;;5008254;28;20152;-81
2021/01/21 02:24:20;;;;;;;7.55;0.60;;;7.20;99.90;;;;;;5028867;28;20487;-81
2021/01/21 02:26:55;;;;;;;7.10;1.15;;;7.20;99.90;;;;;;5028027;28;20045;-80
2021/01/21 02:29:34;;;;;;;4.05;0.45;;;7.20;99.90;;;;;;5012985;28;20054;-80
2021/01/21 02:32:08;;;;;;;12.35;1.08;;;7.20;99.90;;;;;;5012168;28;20073;-80
2021/01/21 02:34:51;;;;;;;4.65;0.50;;;7.20;99.90;;;;;;5023989;28;20045;-80
2021/01/21 02:37:26;;;;;;;4.30;0.50;;;7.10;99.90;;;;;;5009148;28;20091;-80
2021/01/21 02:39:55;;;;;;;6.07;0.70;;;7.10;99.90;;;;;;5025664;28;20053;-80
2021/01/21 02:42:22;;;;;;;5.10;0.40;;;7.10;99.90;;;;;;5016415;28;20064;-80
2021/01/21 02:44:48;;;;;;;4.43;0.55;;;7.20;99.90;;;;;;5029754;28;20486;-80
2021/01/21 02:47:17;;;;;;;4.80;0.60;;;7.20;99.90;;;;;;5027378;28;20057;-80
2021/01/21 02:49:48;;;;;;;6.47;0.70;;;7.20;99.90;;;;;;5031116;28;20060;-80
2021/01/21 02:52:21;;;;;;;3.90;0.50;;;7.20;99.90;;;;;;5026137;28;20041;-80
2021/01/21 02:54:57;;;;;;;9.02;0.40;;;7.20;99.90;;;;;;5031292;28;20068;-80
2021/01/21 02:57:33;;;;;;;7.10;0.80;;;7.20;99.90;;;;;;5024238;28;20124;-80
2021/01/21 03:00:05;;;;;;;8.88;0.57;;;7.20;99.90;;;;;;5007565;28;20061;-80
2021/01/21 03:02:35;;;;;;;4.60;0.40;;;7.20;99.90;;;;;;5011740;28;20045;-80
2021/01/21 03:05:04;;;;;;;4.63;0.50;;;7.20;99.90;;;;;;5030379;28;20045;-80
2021/01/21 03:07:32;;;;;;;7.30;0.55;;;7.30;99.90;;;;;;5027599;28;20063;-80
2021/01/21 03:09:59;;;;;;;5.57;0.57;;;7.30;99.90;;;;;;5013615;28;20150;-80
2021/01/21 03:12:27;;;;;;;8.15;0.60;;;7.30;99.90;;;;;;5011201;28;20463;-80
2021/01/21 03:14:56;;;;;;;7.35;0.80;;;7.30;99.90;;;;;;5030543;28;20045;-80
2021/01/21 03:17:26;;;;;;;8.02;0.80;;;7.50;99.90;;;;;;5029186;28;20045;-81
2021/01/21 03:19:53;;;;;;;9.02;2.03;;;7.50;99.90;;;;;;5026890;28;20057;-81
2021/01/21 03:22:20;;;;;;;5.65;0.90;;;7.60;99.90;;;;;;5028703;28;20049;-81
2021/01/21 03:24:47;;;;;;;10.73;0.50;;;7.60;99.90;;;;;;5031190;28;20506;-81
2021/01/21 03:27:13;;;;;;;6.38;0.50;;;7.60;99.90;;;;;;5011545;28;20050;-81
2021/01/21 03:29:40;;;;;;;4.65;0.45;;;7.60;99.90;;;;;;5029371;28;20050;-81
2021/01/21 03:32:06;;;;;;;6.20;0.60;;;7.50;99.90;;;;;;5005623;28;20057;-80
2021/01/21 03:34:33;;;;;;;5.57;0.40;;;7.60;99.90;;;;;;5003314;28;20478;-80
2021/01/21 03:37:00;;;;;;;5.82;0.47;;;7.70;99.90;;;;;;5012855;28;20038;-80
2021/01/21 03:39:27;;;;;;;6.32;1.23;;;7.70;99.90;;;;;;5024164;28;20053;-80
2021/01/21 03:41:53;;;;;;;2.72;0.57;;;7.70;99.90;;;;;;5013601;28;20442;-80
2021/01/21 03:44:20;;;;;;;7.28;0.50;;;7.70;99.90;;;;;;5009781;28;20666;-80
2021/01/21 03:46:46;;;;;;;5.90;0.38;;;7.70;99.90;;;;;;5015822;28;20057;-80
2021/01/21 03:49:13;;;;;;;12.40;0.45;;;7.60;99.90;;;;;;5013665;28;20049;-80
2021/01/21 03:51:40;;;;;;;7.50;0.47;;;7.50;99.90;;;;;;5017766;28;20052;-80
2021/01/21 03:54:07;;;;;;;7.43;0.70;;;7.50;99.90;;;;;;5013444;28;20045;-80
2021/01/21 03:56:33;;;;;;;5.07;0.40;;;7.50;99.90;;;;;;5016485;28;20073;-80
2021/01/21 03:59:00;;;;;;;4.60;0.47;;;7.50;99.90;;;;;;5034391;28;20199;-80
2021/01/21 04:01:27;;;;;;;4.00;0.40;;;7.60;99.90;;;;;;5011491;28;20045;-80
2021/01/21 04:03:53;;;;;;;10.48;0.82;;;7.70;99.90;;;;;;5030749;28;20503;-80
2021/01/21 04:06:24;;;;;;;5.70;0.47;;;7.80;99.90;;;;;;5032532;28;20076;-80
2021/01/21 04:08:50;;;;;;;10.13;0.60;;;8.00;99.90;;;;;;5015602;28;20103;-80
2021/01/21 04:11:17;;;;;;;7.30;0.30;;;8.10;99.90;;;;;;5014478;28;20042;-80
2021/01/21 04:13:43;;;;;;;7.78;0.40;;;8.10;99.90;;;;;;5027424;28;20486;-80
2021/01/21 04:16:10;;;;;;;10.10;0.40;;;8.10;99.90;;;;;;5030914;28;20056;-80
2021/01/21 04:18:36;;;;;;;9.10;0.77;;;8.00;99.90;;;;;;5030695;28;20052;-80
2021/01/21 04:21:03;;;;;;;7.25;0.43;;;8.00;99.90;;;;;;5014673;28;20065;-80
2021/01/21 04:23:29;;;;;;;9.02;0.40;;;8.00;99.90;;;;;;5033808;28;20049;-80
2021/01/21 04:25:56;;;;;;;6.38;0.57;;;8.00;99.90;;;;;;5015014;28;20065;-80
2021/01/21 04:28:22;;;;;;;13.20;0.68;;;7.90;99.90;;;;;;5018249;28;20065;-80
2021/01/21 04:30:49;;;;;;;9.52;0.52;;;7.80;99.90;;;;;;5015102;28;20045;-80
2021/01/21 04:33:16;;;;;;;6.97;0.50;;;7.80;99.90;;;;;;5016646;28;20050;-80
2021/01/21 04:35:43;;;;;;;7.40;0.40;;;7.80;99.90;;;;;;5028773;28;20046;-80
2021/01/21 04:38:10;;;;;;;9.75;0.57;;;7.80;99.90;;;;;;5032843;28;20430;-80
2021/01/21 04:40:36;;;;;;;8.30;1.13;;;7.70;99.90;;;;;;5030569;28;20057;-80
2021/01/21 04:43:03;;;;;;;5.28;0.88;;;7.80;99.90;;;;;;5033623;28;20064;-80
2021/01/21 04:45:30;;;;;;;7.32;1.10;;;7.90;99.90;;;;;;5014968;28;20053;-80
2021/01/21 04:47:57;;;;;;;3.13;0.40;;;8.00;99.90;;;;;;5012040;28;20045;-80
2021/01/21 04:50:24;;;;;;;3.60;0.40;;;8.00;99.90;;;;;;5014338;28;20050;-80
2021/01/21 04:52:53;;;;;;;16.00;0.50;;;8.00;99.90;;;;;;5011719;28;20045;-80
2021/01/21 04:55:30;;;;;;;6.32;0.40;;;8.00;99.90;;;;;;5031116;28;20049;-80
2021/01/21 04:58:24;;;;;;;7.28;0.40;;;8.00;99.90;;;;;;5008553;28;20381;-80
2021/01/21 05:00:53;;;;;;;7.53;0.40;;;8.10;99.90;;;;;;5021628;28;20785;-80
2021/01/21 05:03:21;;;;;;;8.88;0.50;;;8.10;99.90;;;;;;5032613;28;20053;-80
2021/01/21 05:05:48;;;;;;;7.53;0.35;;;8.20;99.90;;;;;;5008714;28;20448;-80
2021/01/21 05:08:15;;;;;;;2.45;0.38;;;8.20;99.90;;;;;;5030930;28;20053;-80
2021/01/21 05:10:42;;;;;;;3.08;0.30;;;8.20;99.90;;;;;;5009973;28;20491;-79
2021/01/21 05:13:09;;;;;;;3.08;0.40;;;8.20;99.90;;;;;;5019753;28;20045;-80
2021/01/21 05:15:36;;;;;;;6.95;0.57;;;8.20;99.90;;;;;;5011537;28;20060;-80
2021/01/21 05:18:04;;;;;;;9.52;0.50;;;8.20;99.90;;;;;;5007605;28;20052;-80
2021/01/21 05:20:37;;;;;;;3.00;0.40;;;8.20;99.90;;;;;;5022488;28;20068;-80
2021/01/21 05:23:04;;;;;;;;;;;8.30;99.90;;;;;;5012518;28;20050;-80
2021/01/21 05:25:32;;;;;;;4.18;0.50;;;8.20;99.90;;;;;;5030694;28;19956;-80
2021/01/21 05:28:02;;;;;;;15.45;0.47;;;8.30;99.90;;;;;;5033151;28;20064;-80
2021/01/21 05:30:33;;;;;;;8.95;0.52;;;8.30;99.90;;;;;;5011731;28;20041;-80
2021/01/21 05:33:00;;;;;;;8.63;0.45;;;8.20;99.90;;;;;;5004579;28;20081;-80
2021/01/21 05:35:29;;;;;;;6.57;0.40;;;8.30;99.90;;;;;;5022951;28;20111;-80
2021/01/21 05:38:04;;;;;;;5.93;0.40;;;8.40;99.90;;;;;;5019215;28;20458;-80
2021/01/21 05:40:34;;;;;;;6.65;0.60;;;8.40;99.90;;;;;;4992663;28;20050;-80
2021/01/21 05:43:01;;;;;;;5.50;0.30;;;8.40;99.90;;;;;;4991866;28;20058;-80
2021/01/21 05:45:28;;;;;;;7.53;0.47;;;8.50;99.90;;;;;;4991657;28;20054;-80
2021/01/21 05:48:00;;;;;;;7.25;0.40;;;8.40;99.90;;;;;;4990467;28;20054;-80
2021/01/21 05:50:29;;;;;;;7.75;0.47;;;8.50;99.90;;;;;;4991436;28;20046;-80
2021/01/21 05:52:57;;;;;;;4.03;0.40;;;8.50;99.90;;;;;;4983930;28;20060;-80
2021/01/21 05:55:25;;;;;;;7.55;0.88;;;8.50;99.90;;;;;;4990767;28;20132;-80
2021/01/21 05:57:53;;;;;;;6.15;0.30;;;8.50;99.90;;;;;;4990019;28;20145;-80
2021/01/21 06:00:24;;;;;;;9.50;0.40;;;8.50;99.90;;;;;;4990332;28;20056;-80
2021/01/21 06:02:52;;;;;;;6.45;0.40;;;8.50;99.90;;;;;;4990181;28;20050;-80
2021/01/21 06:05:20;;;;;;;4.07;0.30;;;8.40;99.90;;;;;;4989850;28;20058;-80
2021/01/21 06:07:48;;;;;;;8.80;0.35;;;8.40;99.90;;;;;;4986990;28;20088;-80
2021/01/21 06:10:15;;;;;;;7.55;0.40;;;8.30;99.90;;;;;;4988317;28;20050;-80
2021/01/21 06:12:46;;;;;;;10.50;0.60;;;8.30;99.90;;;;;;4990609;28;20053;-80
2021/01/21 06:15:14;;;;;;;5.32;1.63;;;8.30;99.90;;;;;;4989812;28;20047;-80
2021/01/21 06:17:46;;;;;;;12.27;0.63;;;8.30;99.90;;;;;;4971534;28;20054;-80
2021/01/21 06:20:15;;;;;;;5.30;0.40;;;8.30;99.90;;;;;;4967631;28;20054;-80
2021/01/21 06:22:46;;;;;;;6.65;1.08;;;8.30;99.90;;;;;;4987677;28;20050;-80
2021/01/21 06:25:15;;;;;;;4.82;0.50;;;8.30;99.90;;;;;;4990489;28;20531;-79
2021/01/21 06:27:44;;;;;;;9.70;0.40;;;8.40;99.90;;;;;;4991215;28;20050;-79
2021/01/21 06:30:19;;;;;;;7.45;0.40;;;8.30;99.90;;;;;;4993008;28;20058;-79
2021/01/21 06:33:01;;;;;;;9.85;0.45;;;8.40;99.90;;;;;;4993716;28;20089;-79
2021/01/21 06:35:40;;;;;;;3.20;0.45;;;8.40;99.90;;;;;;4991584;28;20054;-78
2021/01/21 06:38:12;;;;;;;7.57;0.50;;;8.40;99.90;;;;;;5010927;28;20050;-78
2021/01/21 06:40:43;;;;;;;8.95;0.40;;;8.50;99.90;;;;;;5029912;28;20047;-78
2021/01/21 06:43:20;;;;;;;7.88;0.52;;;8.50;99.90;;;;;;5014993;28;20054;-78
2021/01/21 06:45:46;;;;;;;6.57;0.63;;;8.50;99.90;;;;;;5031268;28;20068;-79
2021/01/21 06:48:13;;;;;;;4.93;0.43;;;8.40;99.90;;;;;;5031193;28;20061;-79
2021/01/21 06:50:42;;;;;;;2.42;0.40;;;8.40;99.90;;;;;;5031115;28;20411;-79
2021/01/21 06:53:10;;;;;;;9.63;0.63;;;8.30;99.90;;;;;;5013582;28;20053;-79
2021/01/21 06:55:40;;;;;;;3.65;0.82;;;8.30;99.90;;;;;;5015989;28;20056;-79
2021/01/21 06:58:07;;;;;;;5.10;0.60;;;8.20;99.90;;;;;;5011537;28;20045;-79
2021/01/21 07:00:34;;;;;;;6.90;0.80;;;8.20;99.90;;;;;;5019467;28;20041;-78
2021/01/21 07:03:01;;;;;;;5.05;0.50;;;8.20;99.90;;;;;;5016238;28;20155;-78
2021/01/21 07:05:28;;;;;;;7.68;0.60;;;8.20;99.90;;;;;;5014135;28;20045;-78
2021/01/21 07:07:56;;;;;;;7.22;0.60;;;8.30;99.90;;;;;;5016053;28;20041;-78
2021/01/21 07:10:27;;;;;;;8.65;0.68;;;8.30;99.90;;;;;;5031700;28;20051;-79
2021/01/21 07:12:55;;;;;;;9.35;0.75;;;8.30;99.90;;;;;;5033937;28;20056;-79
2021/01/21 07:15:48;;;;;;;12.57;1.55;;;8.30;99.90;;;;;;5018675;28;20041;-79
2021/01/21 07:18:23;;;;;;;8.90;0.82;;;8.40;99.90;;;;;;5031078;28;20041;-79
2021/01/21 07:21:10;;;;;;;12.93;1.10;;;8.50;99.90;;;;;;5033595;28;20088;-79
2021/01/21 07:23:37;;;;;;;10.05;0.90;;;8.50;99.90;;;;;;5014629;28;20046;-79
2021/01/21 07:26:31;;;;;;;5.47;0.60;;;8.50;99.90;;;;;;5018372;28;20053;-79
2021/01/21 07:29:20;;;;;;;4.68;0.40;;;8.50;99.90;;;;;;5023294;28;20050;-79
2021/01/21 07:31:52;;;;;;;3.33;0.50;;;8.60;99.90;;;;;;5016721;28;20042;-79
2021/01/21 07:34:22;;;;;;;;;;;8.60;99.90;;;;;;5038141;28;20122;-79
2021/01/21 07:37:15;;;;;;;8.68;1.17;;;8.60;99.90;;;;;;5036288;28;19924;-79
2021/01/21 07:39:57;;;;;;;5.22;0.50;;;8.60;99.90;;;;;;5035485;28;20041;-79
2021/01/21 07:42:44;;;;;;;8.25;1.52;;;8.60;99.90;;;;;;5019274;28;20108;-79
2021/01/21 07:45:18;;;;;;;4.88;0.60;;;8.60;99.90;;;;;;5024906;28;20099;-79
2021/01/21 07:47:48;;;;;;;10.70;1.10;;;8.70;99.90;;;;;;5035443;28;20041;-79
2021/01/21 07:50:22;;;;;;;10.98;1.90;;;8.70;99.90;;;;;;5019813;28;20474;-79
2021/01/21 07:52:50;;;;;;;11.15;0.70;;;8.60;99.90;;;;;;5035512;28;20052;-79
2021/01/21 07:55:35;;;;;;;8.18;0.52;;;8.70;99.90;;;;;;5036909;28;20045;-79
2021/01/21 07:58:24;;;;;;;5.72;0.85;;;8.80;99.90;;;;;;5032604;28;20049;-79
2021/01/21 08:00:53;;;;;;;2.10;0.40;;;8.90;99.90;;;;;;5023806;28;20095;-79
2021/01/21 08:03:27;;;;;;;13.15;0.95;;;8.90;99.90;;;;;;5028077;28;20137;-79
2021/01/21 08:06:03;;;;;;;8.57;0.70;;;9.00;99.90;;;;;;5027452;28;20406;-79
2021/01/21 08:08:30;;;;;;;1.67;0.88;;;9.10;99.90;;;;;;5019459;28;20053;-79
2021/01/21 08:11:08;;;;;;;8.18;0.95;;;9.10;99.90;;;;;;5033198;28;20064;-79
2021/01/21 08:13:35;;;;;;;4.32;0.63;;;9.20;99.90;;;;;;5022404;28;20041;-79
2021/01/21 08:16:03;;;;;;;5.50;0.40;;;9.30;99.90;;;;;;5021541;28;20094;-79
2021/01/21 08:18:30;;;;;;;11.73;0.75;;;9.30;99.90;;;;;;5037199;28;20041;-78
2021/01/21 08:20:56;;;;;;;7.55;0.57;;;9.40;99.90;;;;;;5014378;28;20053;-78
2021/01/21 08:23:23;;;;;;;6.95;0.90;;;9.40;99.90;;;;;;5031337;28;20053;-78
2021/01/21 08:25:53;;;;;;;5.25;0.90;;;9.50;99.90;;;;;;5032830;28;20773;-79
2021/01/21 08:28:22;;;;;;;6.38;0.60;;;9.50;99.90;;;;;;5019250;28;20701;-79
2021/01/21 08:30:50;;;;;;;5.35;0.50;;;9.50;99.90;;;;;;5034950;28;20043;-79
2021/01/21 08:33:22;;;;;;;6.40;0.50;;;9.60;99.90;;;;;;5029188;28;20050;-79
2021/01/21 08:35:55;;;;;;;8.57;1.05;;;9.60;99.90;;;;;;5022977;28;20055;-79
2021/01/21 08:38:27;;;;;;;3.78;0.60;;;9.70;99.90;;;;;;5036419;28;20068;-79
2021/01/21 08:40:55;;;;;;;4.18;0.40;;;9.70;99.90;;;;;;5030717;28;20453;-79
2021/01/21 08:43:23;;;;;;;11.90;0.60;;;9.80;99.90;;;;;;5018446;28;20045;-79
2021/01/21 08:45:51;;;;;;;6.80;0.60;;;9.90;99.90;;;;;;5035321;28;20053;-79
2021/01/21 08:48:28;;;;;;;8.80;0.75;;;10.00;99.90;;;;;;5034661;28;20045;-79
2021/01/21 08:50:56;;;;;;;9.57;0.60;;;10.10;99.90;;;;;;5005534;28;20065;-79
2021/01/21 08:53:24;;;;;;;13.07;1.33;;;10.10;99.90;;;;;;5029605;28;20052;-79
2021/01/21 08:55:53;;;;;;;11.10;0.60;;;10.10;99.90;;;;;;5019783;28;20060;-79
2021/01/21 08:58:33;;;;;;;4.32;0.50;;;10.10;99.90;;;;;;5017785;28;20061;-79
2021/01/21 09:01:10;;;;;;;10.00;0.60;;;10.10;99.90;;;;;;5034175;28;20060;-79
2021/01/21 09:03:47;;;;;;;6.90;0.80;;;10.10;99.90;;;;;;5034520;28;20053;-79
2021/01/21 09:06:21;;;;;;;7.13;0.40;;;10.20;99.90;;;;;;5014478;28;20058;-79
2021/01/21 09:08:56;;;;;;;20.88;2.80;;;10.10;99.90;;;;;;5021245;28;20041;-79
2021/01/21 09:11:38;;;;;;;13.68;1.45;;;10.10;99.90;;;;;;5028317;28;20069;-79
2021/01/21 09:14:15;;;;;;;5.63;0.77;;;10.10;99.90;;;;;;5023454;28;20049;-79
2021/01/21 09:16:46;;;;;;;6.63;0.60;;;10.20;99.90;;;;;;5006056;28;20068;-79
2021/01/21 09:19:15;;;;;;;6.55;0.82;;;10.20;99.90;;;;;;5029876;28;20204;-79
2021/01/21 09:22:00;;;;;;;8.50;0.50;;;10.20;99.90;;;;;;5021444;28;20049;-79
2021/01/21 09:24:28;;;;;;;8.35;0.70;;;10.20;99.90;;;;;;5017380;28;20057;-79
2021/01/21 09:27:13;;;;;;;13.38;0.57;;;10.20;99.90;;;;;;5018374;28;20153;-79
2021/01/21 09:29:50;;;;;;;6.95;0.43;;;10.20;99.90;;;;;;5021671;28;20711;-79
2021/01/21 09:32:21;;;;;;;14.60;0.60;;;10.20;99.90;;;;;;5030172;28;20125;-79
2021/01/21 09:35:08;;;;;;;7.80;0.80;;;10.20;99.90;;;;;;5017767;28;20120;-79
2021/01/21 09:37:39;;;;;;;15.27;1.25;;;10.30;99.90;;;;;;5014500;28;20096;-79
2021/01/21 09:40:08;;;;;;;10.57;0.60;;;10.30;99.90;;;;;;5025894;28;20064;-79
2021/01/21 09:42:36;;;;;;;8.90;0.80;;;10.30;99.90;;;;;;5023903;28;20050;-79
2021/01/21 09:45:07;;;;;;;6.35;0.95;;;10.30;99.90;;;;;;5028301;28;20045;-79
2021/01/21 09:47:34;;;;;;;5.78;0.60;;;10.30;99.90;;;;;;5027252;28;20391;-79
2021/01/21 09:50:03;;;;;;;5.07;0.60;;;10.20;99.90;;;;;;5015472;28;20046;-79
2021/01/21 09:52:31;;;;;;;3.17;0.60;;;10.30;99.90;;;;;;5034123;28;20045;-79
2021/01/21 09:54:58;;;;;;;10.63;0.70;;;10.20;99.90;;;;;;5035155;28;20060;-79
2021/01/21 09:57:28;;;;;;;5.03;0.93;;;10.20;99.90;;;;;;5018412;28;20049;-79
2021/01/21 09:59:54;;;;;;;10.85;0.85;;;10.20;99.90;;;;;;5024122;28;20045;-79
2021/01/21 10:02:22;;;;;;;8.98;0.85;;;10.20;99.90;;;;;;5030982;28;20092;-79
2021/01/21 10:04:50;;;;;;;12.27;0.77;;;10.30;99.90;;;;;;5016604;28;20140;-79
2021/01/21 10:07:17;;;;;;;11.23;1.02;;;10.30;99.90;;;;;;5016690;28;20064;-79
2021/01/21 10:09:43;;;;;;;10.13;0.60;;;10.30;99.90;;;;;;5016524;28;20049;-79
2021/01/21 10:12:10;;;;;;;8.27;0.55;;;10.30;99.90;;;;;;5032505;28;20360;-79
2021/01/21 10:14:37;;;;;;;10.40;0.50;;;10.30;99.90;;;;;;5031473;28;20055;-79
2021/01/21 10:17:07;;;;;;;8.10;1.63;;;10.20;99.90;;;;;;5015392;28;20128;-79
2021/01/21 10:19:35;;;;;;;15.63;2.20;;;10.30;99.90;;;;;;5031101;28;20049;-79
2021/01/21 10:22:01;;;;;;;15.43;0.80;;;10.30;99.90;;;;;;5015063;28;20054;-79
2021/01/21 10:24:28;;;;;;;19.38;0.82;;;10.30;99.90;;;;;;5030137;28;20050;-79
2021/01/21 10:26:55;;;;;;;6.78;0.85;;;10.20;99.90;;;;;;5019632;28;20057;-79
2021/01/21 10:29:21;;;;;;;7.28;0.80;;;10.20;99.90;;;;;;5015003;28;20470;-79
2021/01/21 10:31:49;;;;;;;6.95;0.60;;;10.30;99.90;;;;;;5013512;28;20041;-79
2021/01/21 10:34:16;;;;;;;16.15;0.68;;;10.20;99.90;;;;;;5022162;28;20058;-79
2021/01/21 10:36:43;;;;;;;12.57;1.33;;;10.20;99.90;;;;;;5010224;28;20068;-79
2021/01/21 10:39:09;;;;;;;9.38;0.95;;;10.20;99.90;;;;;;5033615;28;20467;-79
2021/01/21 10:41:37;;;;;;;14.13;1.05;;;10.20;99.90;;;;;;5032004;28;20374;-79
2021/01/21 10:44:03;;;;;;;8.38;1.10;;;10.20;99.90;;;;;;5033468;28;20057;-79
2021/01/21 10:46:30;;;;;;;9.93;0.98;;;10.20;99.90;;;;;;5032363;28;20057;-79
2021/01/21 10:48:56;;;;;;;7.18;0.70;;;10.20;99.90;;;;;;5031625;28;20052;-79
2021/01/21 10:51:23;;;;;;;17.58;1.42;;;10.10;99.90;;;;;;5004031;28;20057;-79
2021/01/21 10:53:49;;;;;;;9.23;1.13;;;10.10;99.90;;;;;;5024532;28;20056;-79
2021/01/21 10:56:17;;;;;;;7.30;0.70;;;10.10;99.90;;;;;;5016091;28;20052;-79
2021/01/21 10:58:44;;;;;;;7.22;1.00;;;10.10;99.90;;;;;;5013240;28;20124;-79
2021/01/21 11:01:10;;;;;;;12.05;0.80;;;10.10;99.90;;;;;;5028007;28;20475;-79
2021/01/21 11:03:38;;;;;;;7.13;0.68;;;10.10;99.90;;;;;;5014122;28;20064;-79
2021/01/21 11:06:05;;;;;;;10.25;0.70;;;10.10;99.90;;;;;;5013998;28;20053;-79
2021/01/21 11:08:31;;;;;;;10.75;0.55;;;10.00;99.90;;;;;;5014060;28;20050;-78
2021/01/21 11:10:58;;;;;;;12.32;1.10;;;10.00;99.90;;;;;;5013701;28;20056;-79
2021/01/21 11:13:24;;;;;;;15.40;0.70;;;10.00;99.90;;;;;;5031511;28;20049;-79
2021/01/21 11:15:51;;;;;;;4.65;1.17;;;10.00;99.90;;;;;;5012908;28;20063;-79
2021/01/21 11:18:18;;;;;;;9.30;0.70;;;10.00;99.90;;;;;;5011897;28;20046;-79
2021/01/21 11:20:45;;;;;;;18.88;1.08;;;10.00;99.90;;;;;;5013965;28;20041;-79
2021/01/21 11:23:11;;;;;;;14.50;0.75;;;9.90;99.90;;;;;;5026285;28;20049;-79
2021/01/21 11:25:39;;;;;;;16.77;1.33;;;10.00;99.90;;;;;;5033060;28;20059;-79
2021/01/21 11:28:07;;;;;;;11.05;0.90;;;10.00;99.90;;;;;;5025309;28;20104;-79
2021/01/21 11:30:34;;;;;;;16.45;1.00;;;10.00;99.90;;;;;;5033232;28;20053;-79
2021/01/21 11:33:02;;;;;;;16.38;0.95;;;10.00;99.90;;;;;;5028306;28;20508;-79
2021/01/21 11:35:30;;;;;;;10.35;2.03;;;10.00;99.90;;;;;;5013730;28;20049;-79
2021/01/21 11:37:57;;;;;;;9.23;1.65;;;10.00;99.90;;;;;;5028937;28;20052;-79
2021/01/21 11:40:23;;;;;;;13.27;1.15;;;10.10;99.90;;;;;;5029898;28;20046;-79
2021/01/21 11:42:50;;;;;;;14.40;1.27;;;10.10;99.90;;;;;;5032327;28;20053;-79
2021/01/21 11:45:17;;;;;;;16.15;1.80;;;10.10;99.90;;;;;;5014003;28;20053;-79
2021/01/21 11:47:44;;;;;;;18.25;3.17;;;10.10;99.90;;;;;;5014956;28;20421;-79
2021/01/21 11:50:14;;;;;;;15.13;2.38;;;10.10;99.90;;;;;;5028788;28;20429;-79
2021/01/21 11:52:42;;;;;;;11.23;1.20;;;10.10;99.90;;;;;;5031661;28;20042;-79
2021/01/21 11:55:09;;;;;;;12.27;1.00;;;10.10;99.90;;;;;;5025237;28;20057;-79
2021/01/21 11:57:37;;;;;;;10.55;1.08;;;10.10;99.90;;;;;;5027302;28;20056;-79
2021/01/21 12:00:05;;;;;;;9.80;0.73;;;10.10;99.90;;;;;;5032137;28;20053;-79
2021/01/21 12:02:32;;;;;;;12.95;1.27;;;10.10;99.90;;;;;;5013624;28;20072;-79
2021/01/21 12:04:59;;;;;;;9.48;1.35;;;10.10;99.90;;;;;;5026036;28;20051;-79
2021/01/21 12:07:27;;;;;;;17.75;1.70;;;10.10;99.90;;;;;;5025137;28;20065;-79
2021/01/21 12:09:54;;;;;;;14.88;1.15;;;10.20;99.90;;;;;;5033366;28;20049;-79
2021/01/21 12:12:22;;;;;;;18.80;2.17;;;10.10;99.90;;;;;;5013913;28;20052;-79
2021/01/21 12:14:49;;;;;;;6.40;1.50;;;10.20;99.90;;;;;;5010361;28;20042;-79
2021/01/21 12:17:16;;;;;;;16.23;1.50;;;10.20;99.90;;;;;;5036022;28;20056;-78
2021/01/21 12:19:46;;;;;;;8.25;1.33;;;10.20;99.90;;;;;;5015265;28;20046;-78
2021/01/21 12:22:13;;;;;;;19.88;1.08;;;10.20;99.90;;;;;;5036759;28;20056;-78
2021/01/21 12:24:41;;;;;;;12.05;1.48;;;10.20;99.90;;;;;;5035167;28;20084;-78
2021/01/21 12:27:08;;;;;;;8.85;0.82;;;10.30;99.90;;;;;;5037287;28;20057;-78
2021/01/21 12:29:35;;;;;;;7.80;0.80;;;10.30;99.90;;;;;;5015078;28;20046;-78
2021/01/21 12:32:02;;;;;;;18.23;1.63;;;10.30;99.90;;;;;;5022858;28;20101;-78
2021/01/21 12:34:31;;;;;;;14.85;1.55;;;10.40;99.90;;;;;;5015759;28;20050;-78
2021/01/21 12:36:57;;;;;;;12.40;1.25;;;10.40;99.90;;;;;;5025840;28;20053;-78
2021/01/21 12:39:24;;;;;;;12.90;1.27;;;10.40;99.90;;;;;;5018164;28;20041;-79
2021/01/21 12:41:51;;;;;;;9.88;1.30;;;10.40;99.90;;;;;;5029786;28;20045;-79
2021/01/21 12:44:18;;;;;;;13.27;1.20;;;10.40;99.90;;;;;;5038101;28;20057;-79
2021/01/21 12:46:44;;;;;;;5.85;0.73;;;10.40;99.90;;;;;;5034082;28;20050;-79
2021/01/21 12:49:11;;;;;;;13.25;1.42;;;10.40;99.90;;;;;;5034296;28;20049;-79
2021/01/21 12:51:38;;;;;;;16.63;1.60;;;10.40;99.90;;;;;;5028100;28;20105;-79
2021/01/21 12:54:05;;;;;;;6.30;0.68;;;10.50;99.90;;;;;;5022938;28;20124;-79
2021/01/21 12:56:32;;;;;;;7.47;0.70;;;10.50;99.90;;;;;;5024476;28;20050;-78
2021/01/21 12:58:59;;;;;;;14.43;0.80;;;10.40;99.90;;;;;;5033827;28;20401;-78
2021/01/21 13:01:27;;;;;;;10.70;1.35;;;10.40;99.90;;;;;;5035650;28;20463;-78
2021/01/21 13:03:55;;;;;;;11.07;1.00;;;10.40;99.90;;;;;;5012606;28;20045;-79